24 Datensätze sind 1 Tag. Aufzeichnung ab 07. Oktober 2014.
Werte (Summe von Anzahl und Position darf nicht größer sein als mögliche Datensätze).
Anzahl:
Position: Summe:
\ 25986 Datensätze möglich.
  20 letzte Aufzeichnungen
gezeigte Daten 20 ab Position 1    Summe der Auswahl = 21
18.01.2018 / 14:25 Uhr bis 19.01.2018 / 09:25 Uhr
Regenmenge 0 Liter

Datum/Zeit Temp. Taupunkt Luftfeuchte Wind speed Wind böhe Wind Temp. Regen Summe Luftdruck
19.01.2018 | 10:25 Uhr 3.1C -0.4C 78% 0.0 kmh 0.0kmh 3.0C 347.9mm 988.5986mBar/hPa
19.01.2018 | 09:25 Uhr 2.7C -0.6C 79% 0.0 kmh 0.0kmh 2.2C 347.9mm 987.6611mBar/hPa
19.01.2018 | 08:25 Uhr 2.5C -0.8C 79% 0.1 kmh 0.3kmh 2.0C 347.9mm 986.7236mBar/hPa
19.01.2018 | 07:25 Uhr 2.5C -0.9C 78% 0.0 kmh 0.1kmh 1.6C 347.9mm 985.4111mBar/hPa
19.01.2018 | 06:25 Uhr 2.5C -0.9C 78% 0.0 kmh 0.2kmh 1.6C 347.9mm 984.5986mBar/hPa
19.01.2018 | 05:25 Uhr 2.7C -0.9C 77% 1.2 kmh 0.4kmh 1.9C 347.9mm 983.5361mBar/hPa
19.01.2018 | 04:25 Uhr 2.9C -0.7C 77% 0.0 kmh 0.4kmh 2.1C 347.9mm 983.4736mBar/hPa
19.01.2018 | 03:24 Uhr 2.8C -0.7C 78% 2.2 kmh 0.8kmh 2.2C 347.9mm 983.0986mBar/hPa
19.01.2018 | 02:24 Uhr 2.8C -0.5C 79% 4.1 kmh 0.2kmh 2.0C 347.9mm 982.8486mBar/hPa
19.01.2018 | 01:25 Uhr 2.8C -0.1C 81% 0.0 kmh 0.7kmh 2.1C 347.9mm 982.5986mBar/hPa
19.01.2018 | 00:24 Uhr 2.8C 0.0C 82% 2.2 kmh 1.5kmh 2.1C 347.9mm 982.0361mBar/hPa
18.01.2018 | 23:24 Uhr 2.7C 0.1C 83% 6.1 kmh 1.7kmh 1.7C 347.9mm 981.1611mBar/hPa
18.01.2018 | 22:25 Uhr 2.6C -0.2C 82% 6.1 kmh 1.4kmh 1.1C 347.9mm 980.6611mBar/hPa
18.01.2018 | 21:25 Uhr 3.9C -0.7C 72% 0.4 kmh 3.0kmh 3.6C 347.9mm 979.2236mBar/hPa
18.01.2018 | 20:24 Uhr 4.1C -1.1C 69% 9.5 kmh 3.5kmh 3.3C 347.9mm 977.6611mBar/hPa
18.01.2018 | 19:25 Uhr 4.8C -1.2C 65% 8.2 kmh 4.2kmh 4.5C 347.9mm 976.0986mBar/hPa
18.01.2018 | 18:25 Uhr 5.4C -0.9C 64% 7.21kmh 4.9kmh 5.2C 347.9mm 973.9111mBar/hPa
18.01.2018 | 17:25 Uhr 6.0C -1.2C 60% 4.01kmh 6.5kmh 6.0C 347.9mm 971.7236mBar/hPa
18.01.2018 | 16:25 Uhr 6.9C -0.8C 58% 6.21kmh 6.2kmh 6.8C 347.9mm 968.9111mBar/hPa
18.01.2018 | 15:25 Uhr 7.7C -1.0C 54% 0.3 kmh 7.0kmh 7.9C 347.9mm 968.2236mBar/hPa